Terminal Aerodrome Forecast
Issued by NWS Twin Cities, MN

Home | Current Version | Previous Version | Text Only | Print | Product List | Glossary Off
Versions: 1 2 3 4 5 6 7 8 9 10 11 12 13 14 15 16 17

000
FTUS43 KMPX 231737
TAFEAU
TAF
KEAU 231737Z 2318/2418 24010KT P6SM SCT060 OVC080
     FM240000 28008KT P6SM OVC025
     FM240200 29006KT 4SM BR OVC015
     FM240600 30005KT 4SM BR OVC008=

USA.gov is the U.S. government's official web portal to all federal, state and local government web resources and services.